Аэропорт: Большое Савино. Пермь

ICAO: USPP

METAR:
2018/05/20 23:00
USPP 202300Z 35004MPS 9999 OVC013 07/04 Q1017 R21/120055 TEMPO 2100 -RA BR BKN006 OVC100 RMK QFE752
METAR:
2018/05/20 21:21
TAF USPP 201958Z 2021/2121 34004MPS 9999 OVC011 
      TEMPO 2021/2103 32009MPS 3100 -RA BR 
      BECMG 2105/2107 SCT020 BKN100